createdAt,value
2023-05-21T00:00:10.610Z,58.8742
2023-05-21T00:01:12.406Z,58.8786
2023-05-21T00:02:14.061Z,58.9030
2023-05-21T00:03:15.925Z,58.9078
2023-05-21T00:04:17.539Z,58.9258
2023-05-21T00:05:19.248Z,58.9318
2023-05-21T00:06:21.199Z,58.9110
2023-05-21T00:07:22.685Z,58.8637
2023-05-21T00:08:24.426Z,58.8802
2023-05-21T00:09:26.168Z,58.8755
2023-05-21T00:10:27.833Z,58.8895
2023-05-21T00:11:29.580Z,58.8847
2023-05-21T00:12:31.301Z,58.8839
2023-05-21T00:13:33.003Z,58.8870
2023-05-21T00:14:34.749Z,58.8808
2023-05-21T00:15:36.670Z,58.8991
2023-05-21T00:16:38.324Z,58.8616
2023-05-21T00:17:40.112Z,58.8591
2023-05-21T00:18:41.657Z,58.8787
2023-05-21T00:19:43.338Z,58.8344
2023-05-21T00:20:45.064Z,58.8498
2023-05-21T00:21:46.788Z,58.8328
2023-05-21T00:22:48.516Z,58.8518
2023-05-21T00:23:50.261Z,58.8409
2023-05-21T00:24:51.953Z,58.8181
2023-05-21T00:25:53.693Z,58.7952
2023-05-21T00:26:55.412Z,58.7714
2023-05-21T00:27:57.115Z,58.7591
2023-05-21T00:28:58.850Z,58.7342
2023-05-21T00:30:00.573Z,58.7137
2023-05-21T00:31:02.303Z,58.6811
2023-05-21T00:32:04.096Z,58.6714
2023-05-21T00:33:05.769Z,58.6404
2023-05-21T00:34:07.490Z,58.6292
2023-05-21T00:35:09.196Z,58.6375
2023-05-21T00:36:10.893Z,58.5573
2023-05-21T00:37:12.646Z,58.5408
2023-05-21T00:38:14.362Z,58.5052
2023-05-21T00:39:16.060Z,58.4950
2023-05-21T00:40:17.802Z,58.4776
2023-05-21T00:41:19.533Z,58.4661
2023-05-21T00:42:21.235Z,58.4551
2023-05-21T00:43:22.962Z,58.4593
2023-05-21T00:44:24.705Z,58.4614
2023-05-21T00:45:26.428Z,58.4605
2023-05-21T00:46:28.144Z,58.4464
2023-05-21T00:47:30.000Z,58.4739
2023-05-21T00:48:31.594Z,58.4486
2023-05-21T00:49:33.297Z,58.4480
2023-05-21T00:50:35.018Z,58.3992
2023-05-21T00:51:36.768Z,58.3896
2023-05-21T00:52:38.559Z,58.3558
2023-05-21T00:53:40.192Z,58.3585
2023-05-21T00:54:41.941Z,58.3351
2023-05-21T00:55:43.668Z,58.3262
2023-05-21T00:56:45.398Z,58.2939
2023-05-21T00:57:47.090Z,58.2993
2023-05-21T00:58:48.830Z,58.2734
2023-05-21T00:59:50.578Z,58.2507
2023-05-21T01:00:52.304Z,58.2440
2023-05-21T01:01:54.005Z,58.2740
2023-05-21T01:02:55.780Z,58.2601
2023-05-21T01:03:57.445Z,58.2527
2023-05-21T01:04:59.159Z,58.2242
2023-05-21T01:06:00.916Z,58.2365
2023-05-21T01:07:02.621Z,58.2519
2023-05-21T01:08:04.327Z,58.2284
2023-05-21T01:09:06.070Z,58.2165
2023-05-21T01:10:07.907Z,58.2033
2023-05-21T01:11:09.485Z,58.2091
2023-05-21T01:12:11.213Z,58.1935
2023-05-21T01:13:12.961Z,58.1974
2023-05-21T01:14:14.670Z,58.2034
2023-05-21T01:15:16.384Z,58.2290
2023-05-21T01:16:18.176Z,58.1943
2023-05-21T01:17:19.866Z,58.1911
2023-05-21T01:18:21.569Z,58.1886
2023-05-21T01:19:23.334Z,58.1916
2023-05-21T01:20:25.038Z,58.2219
2023-05-21T01:21:26.729Z,58.2404
2023-05-21T01:22:28.504Z,58.2266
2023-05-21T01:23:30.203Z,58.2140
2023-05-21T01:24:31.892Z,58.2316
2023-05-21T01:25:33.755Z,58.1949
2023-05-21T01:26:35.368Z,58.1795
2023-05-21T01:27:37.074Z,58.1383
2023-05-21T01:28:38.800Z,58.1773
2023-05-21T01:29:40.534Z,58.1639
2023-05-21T01:30:42.260Z,58.1568
2023-05-21T01:31:43.983Z,58.1370
2023-05-21T01:32:45.776Z,58.1377
2023-05-21T01:33:47.483Z,58.1599
2023-05-21T01:34:49.156Z,58.1285
2023-05-21T01:35:50.856Z,58.1156
2023-05-21T01:36:52.580Z,58.1177
2023-05-21T01:37:54.330Z,58.1065
2023-05-21T01:38:56.056Z,58.1041
2023-05-21T01:39:57.753Z,58.1121
2023-05-21T01:40:59.489Z,58.1120
2023-05-21T01:42:01.203Z,58.0918
2023-05-21T01:43:02.926Z,58.0679
2023-05-21T01:44:04.703Z,58.0629
2023-05-21T01:45:06.399Z,58.0612
2023-05-21T01:46:08.138Z,58.0691
2023-05-21T01:47:09.833Z,58.0524
2023-05-21T01:48:11.565Z,58.0432
2023-05-21T01:49:13.269Z,57.9981
2023-05-21T01:50:15.013Z,58.0041
2023-05-21T01:51:16.738Z,58.0650
2023-05-21T01:52:18.427Z,58.0465
2023-05-21T01:53:20.157Z,58.0154
2023-05-21T01:54:21.901Z,58.0248
2023-05-21T01:55:23.599Z,58.0303
2023-05-21T01:56:25.327Z,58.0019
2023-05-21T01:57:27.102Z,58.0080
2023-05-21T01:58:28.772Z,57.9911
2023-05-21T01:59:30.513Z,58.0233
2023-05-21T02:00:32.245Z,58.0137
2023-05-21T02:01:33.972Z,58.0289
2023-05-21T02:02:35.812Z,58.0126
2023-05-21T02:03:37.507Z,58.0095
2023-05-21T02:04:39.131Z,58.0007
2023-05-21T02:05:40.866Z,58.0048
2023-05-21T02:06:42.573Z,58.0076
2023-05-21T02:07:44.317Z,58.0033
2023-05-21T02:08:46.013Z,57.9852
2023-05-21T02:09:47.775Z,57.9927
2023-05-21T02:10:49.463Z,58.0224
2023-05-21T02:11:50.995Z,58.0318
2023-05-21T02:12:54.847Z,58.0390
2023-05-21T02:16:05.009Z,58.0753
2023-05-21T02:17:06.595Z,58.0258
2023-05-21T02:18:08.387Z,58.0568
2023-05-21T02:19:10.250Z,58.0985
2023-05-21T02:20:11.865Z,58.0984
2023-05-21T02:21:13.525Z,58.1096
2023-05-21T02:22:15.215Z,58.1493
2023-05-21T02:23:16.946Z,58.1231
2023-05-21T02:24:18.737Z,58.1224
2023-05-21T02:25:20.428Z,58.1551
2023-05-21T02:26:22.151Z,58.1456
2023-05-21T02:27:23.856Z,58.1657
2023-05-21T02:28:25.591Z,58.1520
2023-05-21T02:29:27.317Z,58.1524
2023-05-21T02:30:29.043Z,58.1523
2023-05-21T02:31:30.744Z,58.1466
2023-05-21T02:32:32.580Z,58.1488
2023-05-21T02:33:34.290Z,58.1445
2023-05-21T02:34:35.949Z,58.1125
2023-05-21T02:35:37.837Z,58.1432
2023-05-21T02:36:39.394Z,58.1214
2023-05-21T02:37:41.118Z,58.1108
2023-05-21T02:38:42.835Z,58.1209
2023-05-21T02:39:44.573Z,58.1150
2023-05-21T02:40:46.308Z,58.1203
2023-05-21T02:41:48.005Z,58.1202
2023-05-21T02:42:49.742Z,58.1055
2023-05-21T02:43:51.461Z,58.1046
2023-05-21T02:44:53.175Z,58.0709
2023-05-21T02:45:54.957Z,58.0937
2023-05-21T02:46:56.628Z,58.0870
2023-05-21T02:47:58.429Z,58.0772
2023-05-21T02:49:00.105Z,58.0711
2023-05-21T02:50:01.826Z,58.0605
2023-05-21T02:51:03.554Z,58.0603
2023-05-21T02:52:05.247Z,58.0578
2023-05-21T02:53:06.975Z,58.0390
2023-05-21T02:54:08.720Z,58.0360
2023-05-21T02:55:10.421Z,57.9913
2023-05-21T02:56:12.162Z,57.9585
2023-05-21T02:57:13.903Z,57.9468
2023-05-21T02:58:15.608Z,57.9181
2023-05-21T02:59:17.346Z,57.9020
2023-05-21T03:00:19.089Z,57.9234
2023-05-21T03:01:20.835Z,57.9026
2023-05-21T03:02:22.758Z,57.8812
2023-05-21T03:03:24.382Z,57.8585
2023-05-21T03:04:25.974Z,57.8583
2023-05-21T03:05:27.697Z,57.8327
2023-05-21T03:06:29.440Z,57.8238
2023-05-21T03:07:31.169Z,57.8060
2023-05-21T03:08:32.872Z,57.8039
2023-05-21T03:09:34.617Z,57.8312
2023-05-21T03:10:36.350Z,57.8177
2023-05-21T03:11:38.077Z,57.8110
2023-05-21T03:12:39.792Z,57.7836
2023-05-21T03:13:41.551Z,57.7386
2023-05-21T03:14:43.263Z,57.6664
2023-05-21T03:15:44.956Z,57.6384
2023-05-21T03:16:46.731Z,57.6167
2023-05-21T03:17:48.460Z,57.5954
2023-05-21T03:18:50.174Z,57.5407
2023-05-21T03:19:51.863Z,57.5259
2023-05-21T03:20:53.661Z,57.5131
2023-05-21T03:21:55.341Z,57.4735
2023-05-21T03:22:57.069Z,57.4801
2023-05-21T03:23:58.802Z,57.4551
2023-05-21T03:25:00.489Z,57.4453
2023-05-21T03:26:02.260Z,57.4551
2023-05-21T03:27:03.972Z,57.4331
2023-05-21T03:28:05.663Z,57.4438
2023-05-21T03:29:07.420Z,57.4164
2023-05-21T03:30:09.165Z,57.4339
2023-05-21T03:31:10.839Z,57.4420
2023-05-21T03:32:12.683Z,57.4255
2023-05-21T03:33:14.324Z,57.4058
2023-05-21T03:34:16.010Z,57.3840
2023-05-21T03:35:17.763Z,57.4114
2023-05-21T03:36:19.482Z,57.4239
2023-05-21T03:37:21.196Z,57.3811
2023-05-21T03:38:22.907Z,57.3421
2023-05-21T03:39:24.657Z,57.3082
2023-05-21T03:40:26.390Z,57.2913
2023-05-21T03:41:28.116Z,57.2825
2023-05-21T03:42:29.824Z,57.3017
2023-05-21T03:43:31.565Z,57.2634
2023-05-21T03:44:33.258Z,57.2649
2023-05-21T03:45:35.135Z,57.2618
2023-05-21T03:46:36.813Z,57.2672
2023-05-21T03:47:38.547Z,57.3048
2023-05-21T03:48:40.160Z,57.2966
2023-05-21T03:49:41.898Z,57.2952
2023-05-21T03:50:43.632Z,57.2923
2023-05-21T03:51:45.324Z,57.2779
2023-05-21T03:52:47.080Z,57.2893
2023-05-21T03:53:48.800Z,57.2594
2023-05-21T03:54:50.500Z,57.2662
2023-05-21T03:55:52.236Z,57.2921
2023-05-21T03:56:53.976Z,57.2791
2023-05-21T03:57:55.693Z,57.2892
2023-05-21T03:58:57.404Z,57.2896
2023-05-21T03:59:59.173Z,57.3030
2023-05-21T04:01:00.852Z,57.3020
2023-05-21T04:02:02.572Z,57.3318
2023-05-21T04:03:04.415Z,57.3364
2023-05-21T04:04:06.222Z,57.3793
2023-05-21T04:05:07.753Z,57.3941
2023-05-21T04:06:09.508Z,57.3744
2023-05-21T04:07:11.197Z,57.3559
2023-05-21T04:08:12.957Z,57.4185
2023-05-21T04:09:14.653Z,57.4145
2023-05-21T04:10:16.368Z,57.4102
2023-05-21T04:11:18.107Z,57.4320
2023-05-21T04:12:19.853Z,57.4811
2023-05-21T04:13:21.573Z,57.4737
2023-05-21T04:14:23.311Z,57.4405
2023-05-21T04:15:25.008Z,57.4826
2023-05-21T04:16:26.741Z,57.4810
2023-05-21T04:17:28.453Z,57.4593
2023-05-21T04:18:30.245Z,57.4632
2023-05-21T04:19:31.978Z,57.4982
2023-05-21T04:20:33.644Z,57.4936
2023-05-21T04:21:35.346Z,57.5111
2023-05-21T04:22:37.060Z,57.4927
2023-05-21T04:23:38.824Z,57.4686
2023-05-21T04:24:40.499Z,57.4318
2023-05-21T04:25:42.246Z,57.3874
2023-05-21T04:26:43.968Z,57.3753
2023-05-21T04:27:45.670Z,57.3499
2023-05-21T04:28:47.449Z,57.3371
2023-05-21T04:29:50.702Z,57.3137
2023-05-21T04:30:50.861Z,57.3339
2023-05-21T04:31:52.620Z,57.3034
2023-05-21T04:32:54.315Z,57.2891
2023-05-21T04:33:56.028Z,57.2952
2023-05-21T04:34:57.733Z,57.3016
2023-05-21T04:35:59.486Z,57.3058
2023-05-21T04:37:01.183Z,57.2936
2023-05-21T04:38:04.194Z,57.2969
2023-05-21T04:40:05.504Z,57.3054
2023-05-21T04:41:07.158Z,57.2820
2023-05-21T04:42:08.879Z,57.3118
2023-05-21T04:43:10.711Z,57.3314
2023-05-21T04:44:12.327Z,57.3431
2023-05-21T04:45:14.031Z,57.3666
2023-05-21T04:46:15.865Z,57.3448
2023-05-21T04:47:17.545Z,57.3557
2023-05-21T04:48:19.271Z,57.3466
2023-05-21T04:49:20.979Z,57.3429
2023-05-21T04:50:22.669Z,57.3731
2023-05-21T04:51:24.400Z,57.3708
2023-05-21T04:52:26.093Z,57.3882
2023-05-21T04:53:27.824Z,57.4372
2023-05-21T04:54:29.581Z,57.4352
2023-05-21T04:55:31.269Z,57.4255
2023-05-21T04:56:33.030Z,57.4252
2023-05-21T04:57:34.734Z,57.4584
2023-05-21T04:58:36.438Z,57.4495
2023-05-21T04:59:38.155Z,57.4763
2023-05-21T05:00:39.930Z,57.4642
2023-05-21T05:01:41.604Z,57.4290
2023-05-21T05:02:43.538Z,57.4425
2023-05-21T05:03:45.127Z,57.4431
2023-05-21T05:04:46.809Z,57.4205
2023-05-21T05:05:48.513Z,57.3773
2023-05-21T05:06:50.244Z,57.3540
2023-05-21T05:07:51.983Z,57.3343
2023-05-21T05:08:53.674Z,57.3165
2023-05-21T05:09:55.416Z,57.3228
2023-05-21T05:10:57.153Z,57.2839
2023-05-21T05:11:58.842Z,57.2603
2023-05-21T05:13:00.567Z,57.2272
2023-05-21T05:14:02.308Z,57.2163
2023-05-21T05:15:04.004Z,57.1948
2023-05-21T05:16:05.759Z,57.2004
2023-05-21T05:17:07.478Z,57.1707
2023-05-21T05:18:09.218Z,57.1537
2023-05-21T05:19:10.935Z,57.1288
2023-05-21T05:20:12.651Z,57.1178
2023-05-21T05:21:14.342Z,57.1194
2023-05-21T05:22:16.089Z,57.0915
2023-05-21T05:23:17.802Z,57.0617
2023-05-21T05:24:19.536Z,57.0478
2023-05-21T05:25:21.254Z,57.0620
2023-05-21T05:26:22.961Z,57.1011
2023-05-21T05:27:24.697Z,57.0856
2023-05-21T05:28:26.426Z,57.1018
2023-05-21T05:29:28.135Z,57.1105
2023-05-21T05:30:29.856Z,57.1340
2023-05-21T05:31:31.653Z,57.1221
2023-05-21T05:32:33.401Z,57.1399
2023-05-21T05:33:35.021Z,57.1435
2023-05-21T05:34:36.738Z,57.1379
2023-05-21T05:35:38.572Z,57.1363
2023-05-21T05:36:40.201Z,57.1159
2023-05-21T05:37:41.939Z,57.1423
2023-05-21T05:38:43.621Z,57.1311
2023-05-21T05:39:45.341Z,57.1319
2023-05-21T05:40:47.056Z,57.0948
2023-05-21T05:41:48.809Z,57.0883
2023-05-21T05:42:50.521Z,57.1132
2023-05-21T05:43:52.243Z,57.0922
2023-05-21T05:44:53.968Z,57.1077
2023-05-21T05:45:55.716Z,57.1220
2023-05-21T05:46:57.385Z,57.1070
2023-05-21T05:47:59.138Z,57.0980
2023-05-21T05:49:00.844Z,57.1223
2023-05-21T05:50:02.569Z,57.1430
2023-05-21T05:51:04.287Z,57.1266
2023-05-21T05:52:05.995Z,57.1191
2023-05-21T05:53:07.718Z,57.1570
2023-05-21T05:54:09.442Z,57.1487
2023-05-21T05:55:11.357Z,57.1561
2023-05-21T05:56:12.865Z,57.1390
2023-05-21T05:57:14.597Z,57.1184
2023-05-21T05:58:16.352Z,57.1891
2023-05-21T05:59:18.066Z,57.1662
2023-05-21T06:00:19.783Z,57.1333
2023-05-21T06:01:21.487Z,57.1969
2023-05-21T06:02:23.338Z,57.1551
2023-05-21T06:03:25.034Z,57.1513
2023-05-21T06:04:26.667Z,57.1670
2023-05-21T06:05:28.408Z,57.1822
2023-05-21T06:06:30.093Z,57.2030
2023-05-21T06:07:31.814Z,57.1707
2023-05-21T06:08:34.234Z,57.1845
2023-05-21T06:09:35.273Z,57.1902
2023-05-21T06:10:36.998Z,57.2119
2023-05-21T06:11:38.737Z,57.2185
2023-05-21T06:12:40.426Z,57.1967
2023-05-21T06:13:42.156Z,57.1974
2023-05-21T06:14:45.220Z,57.2188
2023-05-21T06:16:46.508Z,57.2728
2023-05-21T06:17:48.204Z,57.3063
2023-05-21T06:18:49.867Z,57.3015
2023-05-21T06:19:51.692Z,57.2960
2023-05-21T06:20:53.325Z,57.3137
2023-05-21T06:21:55.035Z,57.3084
2023-05-21T06:22:56.772Z,57.3029
2023-05-21T06:23:58.478Z,57.3249
2023-05-21T06:25:00.247Z,57.3563
2023-05-21T06:26:01.927Z,57.3662
2023-05-21T06:27:03.637Z,57.3343
2023-05-21T06:28:05.391Z,57.3730
2023-05-21T06:29:07.111Z,57.3913
2023-05-21T06:30:08.809Z,57.4223
2023-05-21T06:31:10.533Z,57.4478
2023-05-21T06:32:12.279Z,57.4500
2023-05-21T06:33:14.050Z,57.5228
2023-05-21T06:34:15.728Z,57.4940
2023-05-21T06:35:17.423Z,57.5127
2023-05-21T06:36:19.147Z,57.5367
2023-05-21T06:37:20.862Z,57.6056
2023-05-21T06:38:22.609Z,57.6590
2023-05-21T06:39:24.334Z,57.7198
2023-05-21T06:40:26.051Z,57.6771
2023-05-21T06:41:27.752Z,57.7452
2023-05-21T06:42:29.513Z,57.7823
2023-05-21T06:43:31.221Z,57.8405
2023-05-21T06:44:32.937Z,57.8835
2023-05-21T06:45:34.967Z,57.9583
2023-05-21T06:46:36.398Z,58.0364
2023-05-21T06:47:38.119Z,58.0949
2023-05-21T06:48:39.832Z,58.1497
2023-05-21T06:49:41.547Z,58.1598
2023-05-21T06:50:43.266Z,58.1385
2023-05-21T06:51:44.998Z,58.1707
2023-05-21T06:52:46.687Z,58.1395
2023-05-21T06:53:48.421Z,58.2014
2023-05-21T06:54:50.138Z,58.1683
2023-05-21T06:55:51.872Z,58.1889
2023-05-21T06:56:53.585Z,58.2608
2023-05-21T06:57:55.284Z,58.2673
2023-05-21T06:58:57.013Z,58.2412
2023-05-21T06:59:58.736Z,58.2297
2023-05-21T07:01:00.493Z,58.2503
2023-05-21T07:02:04.379Z,58.2702
2023-05-21T07:03:03.946Z,58.2843
2023-05-21T07:04:05.629Z,58.2747
2023-05-21T07:05:07.369Z,58.2682
2023-05-21T07:06:09.079Z,58.2586
2023-05-21T07:07:10.795Z,58.2714
2023-05-21T07:08:12.501Z,58.2709
2023-05-21T07:09:14.269Z,58.3297
2023-05-21T07:10:15.973Z,58.3209
2023-05-21T07:11:17.710Z,58.3162
2023-05-21T07:12:19.413Z,58.2912
2023-05-21T07:13:21.140Z,58.3086
2023-05-21T07:14:22.860Z,58.2640
2023-05-21T07:15:24.571Z,58.2778
2023-05-21T07:16:26.344Z,58.2734
2023-05-21T07:17:28.086Z,58.2526
2023-05-21T07:18:29.752Z,58.2749
2023-05-21T07:19:31.566Z,58.2878
2023-05-21T07:20:33.191Z,58.3249
2023-05-21T07:21:34.902Z,58.3648
2023-05-21T07:22:36.669Z,58.3345
2023-05-21T07:23:38.386Z,58.3356
2023-05-21T07:24:40.098Z,58.3226
2023-05-21T07:25:41.800Z,58.3208
2023-05-21T07:26:43.524Z,58.3280
2023-05-21T07:27:45.237Z,58.3169
2023-05-21T07:28:47.028Z,58.3186
2023-05-21T07:29:48.705Z,58.3375
2023-05-21T07:30:50.458Z,58.3844
2023-05-21T07:31:52.122Z,58.3520
2023-05-21T07:32:53.881Z,58.4112
2023-05-21T07:33:55.594Z,58.4372
2023-05-21T07:34:57.333Z,58.4686
2023-05-21T07:35:59.057Z,58.4077
2023-05-21T07:37:00.753Z,58.4212
2023-05-21T07:38:02.521Z,58.4776
2023-05-21T07:39:04.203Z,58.4926
2023-05-21T07:40:05.927Z,58.4525
2023-05-21T07:41:07.658Z,58.4949
2023-05-21T07:42:09.395Z,58.5060
2023-05-21T07:43:11.123Z,58.4709
2023-05-21T07:44:12.841Z,58.5563
2023-05-21T07:45:14.550Z,58.5507
2023-05-21T07:46:16.320Z,58.5610
2023-05-21T07:47:18.012Z,58.5930
2023-05-21T07:48:19.745Z,58.6263
2023-05-21T07:49:21.465Z,58.5634
2023-05-21T07:50:23.184Z,58.6043
2023-05-21T07:51:24.917Z,58.6407
2023-05-21T07:52:26.662Z,58.6485
2023-05-21T07:53:28.328Z,58.6728
2023-05-21T07:54:30.084Z,58.6738
2023-05-21T07:55:31.790Z,58.6071
2023-05-21T07:56:33.513Z,58.6654
2023-05-21T07:57:35.266Z,58.7106
2023-05-21T07:58:36.951Z,58.6833
2023-05-21T07:59:38.691Z,58.7197
2023-05-21T08:00:40.576Z,58.6398
2023-05-21T08:01:42.141Z,58.6639
2023-05-21T08:02:44.025Z,58.6513
2023-05-21T08:03:45.695Z,58.7032
2023-05-21T08:04:47.379Z,58.7389
2023-05-21T08:05:49.072Z,58.7483
2023-05-21T08:06:50.755Z,58.7871
2023-05-21T08:07:52.479Z,58.8477
2023-05-21T08:08:54.180Z,58.7897
2023-05-21T08:09:55.909Z,58.8606
2023-05-21T08:10:57.643Z,58.8498
2023-05-21T08:11:59.373Z,58.8400
2023-05-21T08:13:01.073Z,58.8937
2023-05-21T08:14:02.804Z,58.8924
2023-05-21T08:15:04.536Z,58.9643
2023-05-21T08:16:06.279Z,59.0336
2023-05-21T08:17:08.065Z,59.0760
2023-05-21T08:18:09.853Z,58.9602
2023-05-21T08:19:11.503Z,58.9548
2023-05-21T08:20:13.149Z,58.9457
2023-05-21T08:21:14.879Z,58.9518
2023-05-21T08:22:16.595Z,59.0111
2023-05-21T08:23:18.310Z,59.0055
2023-05-21T08:24:20.044Z,59.0168
2023-05-21T08:25:21.767Z,59.0225
2023-05-21T08:26:23.470Z,59.1588
2023-05-21T08:27:25.203Z,59.2421
2023-05-21T08:28:26.935Z,59.2479
2023-05-21T08:29:28.665Z,59.3247
2023-05-21T08:30:30.377Z,59.3912
2023-05-21T08:31:32.098Z,59.4795
2023-05-21T08:32:33.874Z,59.5006
2023-05-21T08:33:35.536Z,59.6276
2023-05-21T08:34:37.259Z,59.6151
2023-05-21T08:35:39.134Z,59.6486
2023-05-21T08:36:40.685Z,59.6681
2023-05-21T08:37:42.406Z,59.6455
2023-05-21T08:38:44.175Z,59.7003
2023-05-21T08:39:45.867Z,59.7273
2023-05-21T08:40:47.596Z,59.6895
2023-05-21T08:41:49.330Z,59.5824
2023-05-21T08:42:51.029Z,59.5936
2023-05-21T08:43:54.329Z,59.6162
2023-05-21T08:48:44.782Z,59.8362
2023-05-21T08:49:46.410Z,59.7567
2023-05-21T08:50:48.128Z,59.7812
2023-05-21T08:51:49.947Z,59.7682
2023-05-21T08:52:51.594Z,59.7630
2023-05-21T08:53:53.292Z,59.7990
2023-05-21T08:54:55.021Z,59.7932
2023-05-21T08:55:56.835Z,59.8388
2023-05-21T08:56:58.495Z,59.8724
2023-05-21T08:58:00.203Z,59.8985
2023-05-21T08:59:01.932Z,59.9543
2023-05-21T09:00:03.630Z,59.9696
2023-05-21T09:01:05.423Z,59.9412
2023-05-21T09:02:07.175Z,59.9748
2023-05-21T09:03:08.911Z,60.0852
2023-05-21T09:04:20.292Z,59.9757
2023-05-21T09:05:12.257Z,60.0393
2023-05-21T09:06:13.977Z,59.9955
2023-05-21T09:07:15.719Z,60.0085
2023-05-21T09:08:17.521Z,60.0522
2023-05-21T09:09:19.148Z,60.0479
2023-05-21T09:10:20.958Z,60.1296
2023-05-21T09:11:22.572Z,60.1982
2023-05-21T09:12:24.294Z,60.1876
2023-05-21T09:13:26.100Z,60.1926
2023-05-21T09:14:27.754Z,60.2095
2023-05-21T09:15:29.516Z,60.1836
2023-05-21T09:16:31.215Z,60.1979
2023-05-21T09:17:32.961Z,60.1783
2023-05-21T09:18:34.618Z,60.1099
2023-05-21T09:19:36.523Z,60.0708
2023-05-21T09:20:38.065Z,59.9399
2023-05-21T09:21:39.793Z,59.9246
2023-05-21T09:22:41.547Z,59.9177
2023-05-21T09:23:43.254Z,59.9427
2023-05-21T09:24:44.984Z,59.9464
2023-05-21T09:25:46.780Z,59.9157
2023-05-21T09:26:48.396Z,59.8942
2023-05-21T09:27:50.120Z,59.8851
2023-05-21T09:28:51.847Z,59.8988
2023-05-21T09:29:53.578Z,59.9701
2023-05-21T09:30:55.311Z,59.9310
2023-05-21T09:31:57.148Z,59.8895
2023-05-21T09:32:58.782Z,59.8488
2023-05-21T09:34:00.439Z,59.8462
2023-05-21T09:35:02.175Z,59.8643
2023-05-21T09:36:03.907Z,59.9647
2023-05-21T09:37:08.537Z,59.9165
2023-05-21T09:39:15.937Z,59.8647
2023-05-21T09:40:17.582Z,59.7880
2023-05-21T09:41:21.959Z,59.7236
2023-05-21T09:45:15.715Z,59.6671
2023-05-21T09:46:17.380Z,59.6651
2023-05-21T09:47:19.068Z,59.6693
2023-05-21T09:48:20.888Z,59.6375
2023-05-21T09:49:22.522Z,59.5520
2023-05-21T09:50:24.234Z,59.5074
2023-05-21T09:51:25.963Z,59.5053
2023-05-21T09:52:27.774Z,59.4549
2023-05-21T09:53:29.455Z,59.4448
2023-05-21T09:54:31.152Z,59.4658
2023-05-21T09:55:32.891Z,59.5576
2023-05-21T09:56:34.629Z,59.5281
2023-05-21T09:57:36.314Z,59.5233
2023-05-21T09:58:38.167Z,59.5236
2023-05-21T09:59:39.800Z,59.5852
2023-05-21T10:00:41.510Z,59.5951
2023-05-21T10:01:43.273Z,59.7699
2023-05-21T10:02:44.982Z,59.8102
2023-05-21T10:03:48.122Z,59.7583
2023-05-21T10:09:35.177Z,59.7857
2023-05-21T10:10:37.003Z,59.7767
2023-05-21T10:11:38.540Z,59.7630
2023-05-21T10:12:40.352Z,59.7853
2023-05-21T10:13:41.995Z,59.8775
2023-05-21T10:14:43.737Z,59.9677
2023-05-21T10:15:45.445Z,59.9716
2023-05-21T10:16:47.245Z,59.9174
2023-05-21T10:17:49.057Z,59.9399
2023-05-21T10:18:50.618Z,59.9931
2023-05-21T10:19:52.350Z,60.0097
2023-05-21T10:20:54.056Z,59.9117
2023-05-21T10:21:55.758Z,59.9361
2023-05-21T10:22:57.476Z,59.9454
2023-05-21T10:23:59.312Z,59.9556
2023-05-21T10:25:00.965Z,59.9556
2023-05-21T10:26:02.668Z,59.9866
2023-05-21T10:27:04.366Z,59.9638
2023-05-21T10:28:06.092Z,59.9458
2023-05-21T10:29:07.822Z,59.8709
2023-05-21T10:30:09.624Z,59.9021
2023-05-21T10:31:11.264Z,59.8918
2023-05-21T10:32:13.036Z,59.9250
2023-05-21T10:33:14.731Z,59.9810
2023-05-21T10:34:16.459Z,59.8981
2023-05-21T10:35:18.154Z,59.7856
2023-05-21T10:36:19.944Z,59.8235
2023-05-21T10:37:21.606Z,59.8150
2023-05-21T10:38:23.332Z,59.7908
2023-05-21T10:39:25.052Z,59.7917
2023-05-21T10:40:26.769Z,59.7341
2023-05-21T10:41:28.489Z,59.6081
2023-05-21T10:42:30.271Z,59.5203
2023-05-21T10:43:31.946Z,59.5681
2023-05-21T10:44:33.669Z,59.5148
2023-05-21T10:45:35.389Z,59.4914
2023-05-21T10:46:37.117Z,59.4801
2023-05-21T10:47:38.859Z,59.4642
2023-05-21T10:48:40.624Z,59.5780
2023-05-21T10:49:42.253Z,59.6414
2023-05-21T10:50:44.011Z,59.4820
2023-05-21T10:51:45.721Z,59.4954
2023-05-21T10:52:47.458Z,59.5387
2023-05-21T10:53:49.206Z,59.5191
2023-05-21T10:54:50.867Z,59.5089
2023-05-21T10:55:52.626Z,59.4693
2023-05-21T10:56:54.337Z,59.4376
2023-05-21T10:57:56.067Z,59.4129
2023-05-21T10:58:57.775Z,59.4287
2023-05-21T10:59:59.591Z,59.4048
2023-05-21T11:01:01.244Z,59.3369
2023-05-21T11:02:02.982Z,59.3294
2023-05-21T11:03:04.799Z,59.2001
2023-05-21T11:04:06.389Z,59.1777
2023-05-21T11:05:08.121Z,59.0873
2023-05-21T11:06:09.913Z,59.1194
2023-05-21T11:07:11.578Z,59.1264
2023-05-21T11:08:13.301Z,59.1487
2023-05-21T11:09:15.031Z,59.1523
2023-05-21T11:10:16.744Z,59.0913
2023-05-21T11:11:18.481Z,59.0948
2023-05-21T11:12:20.291Z,59.2490
2023-05-21T11:13:21.973Z,59.2819
2023-05-21T11:14:23.627Z,59.2011
2023-05-21T11:15:25.378Z,59.2466
2023-05-21T11:16:27.117Z,59.2414
2023-05-21T11:17:28.853Z,59.1846
2023-05-21T11:18:30.635Z,59.0364
2023-05-21T11:19:33.898Z,58.9755
2023-05-21T11:24:35.317Z,58.8512
2023-05-21T11:25:36.895Z,58.8956
2023-05-21T11:26:38.631Z,58.8268
2023-05-21T11:27:40.451Z,58.8440
2023-05-21T11:28:42.082Z,58.7996
2023-05-21T11:29:43.836Z,58.8470
2023-05-21T11:30:45.749Z,58.9713
2023-05-21T11:31:47.359Z,58.8143
2023-05-21T11:32:49.086Z,58.6882
2023-05-21T11:33:50.750Z,58.5850
2023-05-21T11:34:52.458Z,58.4696
2023-05-21T11:35:54.185Z,58.3593
2023-05-21T11:36:55.913Z,58.3558
2023-05-21T11:37:57.614Z,58.1804
2023-05-21T11:38:59.412Z,58.0510
2023-05-21T11:40:01.160Z,57.9198
2023-05-21T11:41:02.827Z,57.6931
2023-05-21T11:42:04.885Z,57.5765
2023-05-21T11:43:06.245Z,57.5169
2023-05-21T11:44:07.979Z,57.5601
2023-05-21T11:45:09.798Z,57.4939
2023-05-21T11:46:11.492Z,57.4784
2023-05-21T11:47:13.176Z,57.5741
2023-05-21T11:48:14.910Z,57.6001
2023-05-21T11:49:16.611Z,57.7749
2023-05-21T11:50:18.451Z,57.7393
2023-05-21T11:51:20.091Z,57.7056
2023-05-21T11:52:21.807Z,57.6365
2023-05-21T11:53:23.499Z,57.5367
2023-05-21T11:54:25.224Z,57.5087
2023-05-21T11:55:26.971Z,57.3858
2023-05-21T11:56:28.795Z,57.2360
2023-05-21T11:57:30.390Z,57.1099
2023-05-21T11:58:32.482Z,56.9991
2023-05-21T11:59:33.840Z,56.8982
2023-05-21T12:00:35.788Z,56.8080
2023-05-21T12:01:37.288Z,56.6096
2023-05-21T12:02:39.141Z,56.4198
2023-05-21T12:03:40.832Z,56.2647
2023-05-21T12:04:42.484Z,56.0505
2023-05-21T12:05:44.187Z,55.8140
2023-05-21T12:06:45.917Z,55.4772
2023-05-21T12:07:47.640Z,55.3991
2023-05-21T12:08:49.439Z,55.3242
2023-05-21T12:09:51.112Z,55.4118
2023-05-21T12:10:52.802Z,55.4234
2023-05-21T12:11:54.530Z,55.2699
2023-05-21T12:12:57.507Z,55.3365
2023-05-21T12:14:58.875Z,55.3293
2023-05-21T12:16:00.569Z,55.3320
2023-05-21T12:17:02.254Z,55.3097
2023-05-21T12:18:04.117Z,55.4599
2023-05-21T12:19:05.756Z,55.4440
2023-05-21T12:20:07.483Z,55.3707
2023-05-21T12:21:10.573Z,55.3380
2023-05-21T12:22:10.976Z,55.3976
2023-05-21T12:23:12.617Z,55.4518
2023-05-21T12:24:14.337Z,55.2493
2023-05-21T12:25:16.082Z,55.1373
2023-05-21T12:26:17.807Z,55.0752
2023-05-21T12:27:19.515Z,55.0869
2023-05-21T12:28:21.350Z,55.1137
2023-05-21T12:29:22.962Z,55.1169
2023-05-21T12:30:24.707Z,55.0715
2023-05-21T12:31:26.444Z,55.1357
2023-05-21T12:32:28.186Z,55.0858
2023-05-21T12:33:29.954Z,55.0918
2023-05-21T12:34:31.600Z,55.1686
2023-05-21T12:35:33.381Z,55.0806
2023-05-21T12:36:35.062Z,55.0072
2023-05-21T12:37:36.793Z,55.0245
2023-05-21T12:38:38.490Z,55.0970
2023-05-21T12:39:40.348Z,55.1958
2023-05-21T12:40:42.002Z,55.2448
2023-05-21T12:41:43.713Z,55.1406
2023-05-21T12:42:45.417Z,55.1240
2023-05-21T12:43:47.169Z,55.1724
2023-05-21T12:44:48.870Z,55.2117
2023-05-21T12:45:50.696Z,55.2871
2023-05-21T12:46:52.321Z,55.3737
2023-05-21T12:47:54.074Z,55.3908